createdAt,value
2023-05-12T00:00:47.000Z,14.9
2023-05-12T00:02:03.000Z,14.9
2023-05-12T00:03:19.000Z,14.9
2023-05-12T00:04:35.000Z,14.9
2023-05-12T00:05:51.000Z,14.9
2023-05-12T00:07:08.000Z,14.9
2023-05-12T00:08:23.000Z,14.9
2023-05-12T00:09:39.000Z,14.9
2023-05-12T00:10:55.000Z,14.9
2023-05-12T00:12:11.000Z,14.9
2023-05-12T00:13:27.960Z,14.9
2023-05-12T00:14:44.000Z,14.9
2023-05-12T00:16:00.000Z,14.9
2023-05-12T00:17:16.000Z,14.9
2023-05-12T00:18:32.000Z,14.9
2023-05-12T00:19:48.000Z,14.8
2023-05-12T00:21:05.000Z,14.8
2023-05-12T00:22:21.000Z,14.8
2023-05-12T00:23:37.000Z,14.8
2023-05-12T00:24:52.000Z,14.8
2023-05-12T00:26:08.000Z,14.9
2023-05-12T00:27:25.000Z,14.8
2023-05-12T00:28:41.000Z,14.8
2023-05-12T00:29:57.000Z,14.9
2023-05-12T00:31:13.000Z,14.8
2023-05-12T00:32:29.000Z,14.7
2023-05-12T00:33:46.000Z,14.7
2023-05-12T00:35:02.000Z,14.7
2023-05-12T00:36:18.000Z,14.7
2023-05-12T00:37:34.000Z,14.7
2023-05-12T00:38:50.000Z,14.7
2023-05-12T00:40:07.041Z,14.7
2023-05-12T00:41:22.000Z,14.7
2023-05-12T00:42:38.000Z,14.7
2023-05-12T00:43:54.000Z,14.6
2023-05-12T00:45:10.000Z,14.7
2023-05-12T00:46:27.000Z,14.7
2023-05-12T00:47:43.000Z,14.7
2023-05-12T00:48:59.000Z,14.7
2023-05-12T00:50:15.000Z,14.7
2023-05-12T00:51:31.000Z,14.7
2023-05-12T00:52:48.000Z,14.7
2023-05-12T00:54:04.000Z,14.6
2023-05-12T00:55:20.000Z,14.7
2023-05-12T00:56:36.000Z,14.6
2023-05-12T00:57:51.000Z,14.6
2023-05-12T00:59:08.000Z,14.6
2023-05-12T01:00:24.000Z,14.6
2023-05-12T01:01:40.000Z,14.6
2023-05-12T01:02:56.000Z,14.6
2023-05-12T01:04:12.000Z,14.6
2023-05-12T01:05:29.000Z,14.6
2023-05-12T01:06:45.000Z,14.6
2023-05-12T01:08:01.000Z,14.6
2023-05-12T01:09:17.000Z,14.6
2023-05-12T01:10:33.000Z,14.6
2023-05-12T01:11:49.000Z,14.6
2023-05-12T01:13:06.000Z,14.6
2023-05-12T01:14:21.000Z,14.6
2023-05-12T01:15:37.000Z,14.6
2023-05-12T01:16:53.000Z,14.6
2023-05-12T01:18:09.903Z,14.6
2023-05-12T01:19:26.000Z,14.6
2023-05-12T01:20:42.000Z,14.5
2023-05-12T01:21:58.000Z,14.5
2023-05-12T01:23:14.000Z,14.4
2023-05-12T01:24:30.000Z,14.5
2023-05-12T01:25:47.000Z,14.4
2023-05-12T01:27:03.000Z,14.4
2023-05-12T01:28:19.000Z,14.4
2023-05-12T01:29:35.000Z,14.4
2023-05-12T01:30:50.000Z,14.4
2023-05-12T01:32:07.000Z,14.4
2023-05-12T01:33:23.000Z,14.4
2023-05-12T01:34:39.000Z,14.5
2023-05-12T01:35:55.000Z,14.5
2023-05-12T01:37:11.000Z,14.6
2023-05-12T01:38:28.000Z,14.5
2023-05-12T01:39:44.000Z,14.5
2023-05-12T01:41:00.000Z,14.5
2023-05-12T01:42:16.000Z,14.5
2023-05-12T01:43:32.000Z,14.5
2023-05-12T01:44:49.000Z,14.5
2023-05-12T01:46:05.000Z,14.5
2023-05-12T01:47:20.000Z,14.5
2023-05-12T01:48:36.000Z,14.5
2023-05-12T01:49:52.000Z,14.5
2023-05-12T01:51:09.000Z,14.5
2023-05-12T01:52:25.000Z,14.5
2023-05-12T01:53:41.000Z,14.5
2023-05-12T01:54:57.000Z,14.5
2023-05-12T01:56:13.000Z,14.5
2023-05-12T01:57:29.000Z,14.6
2023-05-12T01:58:46.000Z,14.5
2023-05-12T02:00:02.000Z,14.5
2023-05-12T02:01:18.000Z,14.4
2023-05-12T02:02:34.000Z,14.4
2023-05-12T02:03:49.000Z,14.4
2023-05-12T02:05:06.000Z,14.4
2023-05-12T02:06:22.000Z,14.5
2023-05-12T02:07:38.000Z,14.5
2023-05-12T02:08:54.000Z,14.5
2023-05-12T02:10:10.000Z,14.5
2023-05-12T02:11:27.000Z,14.5
2023-05-12T02:12:43.000Z,14.4
2023-05-12T02:13:59.000Z,14.4
2023-05-12T02:15:15.000Z,14.4
2023-05-12T02:16:31.000Z,14.5
2023-05-12T02:17:48.000Z,14.5
2023-05-12T02:19:04.000Z,14.5
2023-05-12T02:20:19.000Z,14.5
2023-05-12T02:21:35.000Z,14.4
2023-05-12T02:22:51.000Z,14.5
2023-05-12T02:24:08.000Z,14.4
2023-05-12T02:25:24.000Z,14.4
2023-05-12T02:26:40.000Z,14.3
2023-05-12T02:27:56.000Z,14.3
2023-05-12T02:29:12.000Z,14.4
2023-05-12T02:30:29.000Z,14.4
2023-05-12T02:31:45.000Z,14.4
2023-05-12T02:33:01.000Z,14.3
2023-05-12T02:34:17.000Z,14.3
2023-05-12T02:35:33.000Z,14.3
2023-05-12T02:36:49.000Z,14.3
2023-05-12T02:38:05.000Z,14.3
2023-05-12T02:39:21.000Z,14.3
2023-05-12T02:40:37.000Z,14.3
2023-05-12T02:41:53.000Z,14.3
2023-05-12T02:43:09.000Z,14.3
2023-05-12T02:44:26.000Z,14.4
2023-05-12T02:45:42.000Z,14.3
2023-05-12T02:46:58.000Z,14.3
2023-05-12T02:48:14.000Z,14.3
2023-05-12T02:49:30.000Z,14.3
2023-05-12T02:50:47.000Z,14.3
2023-05-12T02:52:03.000Z,14.3
2023-05-12T02:53:18.000Z,14.3
2023-05-12T02:54:34.000Z,14.3
2023-05-12T02:55:50.000Z,14.3
2023-05-12T02:57:07.000Z,14.3
2023-05-12T02:58:23.258Z,14.3
2023-05-12T02:59:39.000Z,14.3
2023-05-12T03:00:55.000Z,14.3
2023-05-12T03:02:11.000Z,14.3
2023-05-12T03:03:28.000Z,14.3
2023-05-12T03:04:44.000Z,14.2
2023-05-12T03:06:00.000Z,14.2
2023-05-12T03:07:16.000Z,14.3
2023-05-12T03:08:32.808Z,14.3
2023-05-12T03:09:48.000Z,14.2
2023-05-12T03:11:04.000Z,14.2
2023-05-12T03:12:20.000Z,14.2
2023-05-12T03:13:36.000Z,14.2
2023-05-12T03:14:52.000Z,14.2
2023-05-12T03:16:09.000Z,14.2
2023-05-12T03:17:24.000Z,14.2
2023-05-12T03:18:40.000Z,14.2
2023-05-12T03:19:56.000Z,14.2
2023-05-12T03:21:12.000Z,14.2
2023-05-12T03:22:29.000Z,14.2
2023-05-12T03:23:45.000Z,14.2
2023-05-12T03:25:01.000Z,14.3
2023-05-12T03:26:17.000Z,14.3
2023-05-12T03:27:33.000Z,14.3
2023-05-12T03:28:50.000Z,14.4
2023-05-12T03:30:06.000Z,14.4
2023-05-12T03:31:22.000Z,14.4
2023-05-12T03:32:38.000Z,14.4
2023-05-12T03:33:53.000Z,14.4
2023-05-12T03:35:09.000Z,14.4
2023-05-12T03:36:26.000Z,14.4
2023-05-12T03:37:42.000Z,14.4
2023-05-12T03:38:58.000Z,14.3
2023-05-12T03:40:14.000Z,14.3
2023-05-12T03:41:30.000Z,14.3
2023-05-12T03:42:47.000Z,14.3
2023-05-12T03:44:03.000Z,14.4
2023-05-12T03:45:19.000Z,14.4
2023-05-12T03:46:35.000Z,14.4
2023-05-12T03:47:51.000Z,14.4
2023-05-12T03:49:08.000Z,14.4
2023-05-12T03:50:23.000Z,14.4
2023-05-12T03:51:39.000Z,14.4
2023-05-12T03:52:55.000Z,14.4
2023-05-12T03:54:11.000Z,14.3
2023-05-12T03:55:28.000Z,14.3
2023-05-12T03:56:44.000Z,14.3
2023-05-12T03:58:00.000Z,14.3
2023-05-12T03:59:16.000Z,14.3
2023-05-12T04:00:32.000Z,14.3
2023-05-12T04:01:49.000Z,14.3
2023-05-12T04:03:05.000Z,14.3
2023-05-12T04:04:21.000Z,14.3
2023-05-12T04:05:37.000Z,14.3
2023-05-12T04:06:52.000Z,14.2
2023-05-12T04:08:09.000Z,14.3
2023-05-12T04:09:25.000Z,14.3
2023-05-12T04:10:41.000Z,14.3
2023-05-12T04:11:57.000Z,14.3
2023-05-12T04:13:13.000Z,14.3
2023-05-12T04:14:30.000Z,14.3
2023-05-12T04:15:46.000Z,14.3
2023-05-12T04:17:02.000Z,14.2
2023-05-12T04:18:18.000Z,14.2
2023-05-12T04:19:34.000Z,14.2
2023-05-12T04:20:50.000Z,14.2
2023-05-12T04:22:07.000Z,14.2
2023-05-12T04:23:22.000Z,14.2
2023-05-12T04:24:38.000Z,14.2
2023-05-12T04:25:54.000Z,14.2
2023-05-12T04:27:10.000Z,14.2
2023-05-12T04:28:27.000Z,14.3
2023-05-12T04:29:43.000Z,14.3
2023-05-12T04:30:59.000Z,14.3
2023-05-12T04:32:15.000Z,14.2
2023-05-12T04:33:31.000Z,14.3
2023-05-12T04:34:48.000Z,14.3
2023-05-12T04:36:04.000Z,14.4
2023-05-12T04:37:20.000Z,14.3
2023-05-12T04:38:36.000Z,14.3
2023-05-12T04:39:51.000Z,14.3
2023-05-12T04:41:08.053Z,14.4
2023-05-12T04:42:24.000Z,14.4
2023-05-12T04:43:40.000Z,14.4
2023-05-12T04:44:56.000Z,14.3
2023-05-12T04:46:12.000Z,14.3
2023-05-12T04:47:29.000Z,14.4
2023-05-12T04:48:45.000Z,14.4
2023-05-12T04:50:01.000Z,14.3
2023-05-12T04:51:17.000Z,14.2
2023-05-12T04:52:33.000Z,14.2
2023-05-12T04:53:50.000Z,14.2
2023-05-12T04:55:06.000Z,14.2
2023-05-12T04:56:21.000Z,14.3
2023-05-12T04:57:37.000Z,14.3
2023-05-12T04:58:53.000Z,14.3
2023-05-12T05:00:10.000Z,14.4
2023-05-12T05:01:26.000Z,14.3
2023-05-12T05:02:42.000Z,14.3
2023-05-12T05:03:58.000Z,14.3
2023-05-12T05:05:14.000Z,14.4
2023-05-12T05:06:30.000Z,14.4
2023-05-12T05:07:47.000Z,14.4
2023-05-12T05:09:03.000Z,14.5
2023-05-12T05:10:19.000Z,14.6
2023-05-12T05:11:35.000Z,14.7
2023-05-12T05:12:50.000Z,14.6
2023-05-12T05:14:07.000Z,14.6
2023-05-12T05:15:23.000Z,14.5
2023-05-12T05:16:39.000Z,14.5
2023-05-12T05:17:55.000Z,14.5
2023-05-12T05:19:11.867Z,14.6
2023-05-12T05:20:28.000Z,14.6
2023-05-12T05:21:44.000Z,14.6
2023-05-12T05:23:00.000Z,14.6
2023-05-12T05:24:16.000Z,14.6
2023-05-12T05:25:32.000Z,14.7
2023-05-12T05:26:49.000Z,14.7
2023-05-12T05:28:05.000Z,14.8
2023-05-12T05:29:20.000Z,14.8
2023-05-12T05:30:36.000Z,14.8
2023-05-12T05:31:52.000Z,14.8
2023-05-12T05:33:09.000Z,14.8
2023-05-12T05:34:25.000Z,14.8
2023-05-12T05:35:41.000Z,14.8
2023-05-12T05:36:57.000Z,14.8
2023-05-12T05:38:13.000Z,14.7
2023-05-12T05:39:30.000Z,14.7
2023-05-12T05:40:46.000Z,14.8
2023-05-12T05:42:02.000Z,14.9
2023-05-12T05:43:18.000Z,14.9
2023-05-12T05:44:34.000Z,15
2023-05-12T05:45:50.000Z,15
2023-05-12T05:47:06.000Z,15.1
2023-05-12T05:48:22.000Z,15.1
2023-05-12T05:49:38.000Z,15.1
2023-05-12T05:50:54.000Z,15.1
2023-05-12T05:52:11.000Z,15.2
2023-05-12T05:53:27.000Z,15.1
2023-05-12T05:54:43.000Z,15.2
2023-05-12T05:55:59.000Z,15.2
2023-05-12T05:57:15.000Z,15.2
2023-05-12T05:58:31.000Z,15.2
2023-05-12T05:59:48.000Z,15.3
2023-05-12T06:01:04.000Z,15.3
2023-05-12T06:02:19.000Z,15.4
2023-05-12T06:03:35.000Z,15.5
2023-05-12T06:04:51.000Z,15.5
2023-05-12T06:06:08.000Z,15.6
2023-05-12T06:07:24.000Z,15.6
2023-05-12T06:08:40.000Z,15.6
2023-05-12T06:09:56.652Z,15.6
2023-05-12T06:11:12.000Z,15.6
2023-05-12T06:12:29.000Z,15.5
2023-05-12T06:13:45.000Z,15.5
2023-05-12T06:15:01.000Z,15.6
2023-05-12T06:16:17.000Z,15.7
2023-05-12T06:17:33.000Z,15.7
2023-05-12T06:18:49.000Z,15.7
2023-05-12T06:20:05.000Z,15.8
2023-05-12T06:21:21.000Z,15.9
2023-05-12T06:22:37.000Z,16
2023-05-12T06:23:53.000Z,15.9
2023-05-12T06:25:10.000Z,15.9
2023-05-12T06:26:26.000Z,15.9
2023-05-12T06:27:42.000Z,15.9
2023-05-12T06:28:58.000Z,15.8
2023-05-12T06:30:14.000Z,15.8
2023-05-12T06:31:31.000Z,15.9
2023-05-12T06:32:47.000Z,16
2023-05-12T06:34:03.000Z,16.1
2023-05-12T06:35:18.553Z,16.1
2023-05-12T06:36:34.000Z,15.9
2023-05-12T06:37:51.000Z,15.9
2023-05-12T06:39:07.000Z,15.9
2023-05-12T06:40:23.000Z,15.9
2023-05-12T06:41:39.000Z,16
2023-05-12T06:42:55.000Z,16
2023-05-12T06:44:11.000Z,16.2
2023-05-12T06:45:28.000Z,16.2
2023-05-12T06:46:44.000Z,16.3
2023-05-12T06:48:00.000Z,16.3
2023-05-12T06:49:16.000Z,16.3
2023-05-12T06:50:32.000Z,16.4
2023-05-12T06:51:48.000Z,16.3
2023-05-12T06:53:04.000Z,16.4
2023-05-12T06:54:20.000Z,16.3
2023-05-12T06:55:36.000Z,16.4
2023-05-12T06:56:52.000Z,16.5
2023-05-12T06:58:09.000Z,16.6
2023-05-12T06:59:25.000Z,16.8
2023-05-12T07:00:41.000Z,16.8
2023-05-12T07:01:57.000Z,16.9
2023-05-12T07:03:13.000Z,16.9
2023-05-12T07:04:30.000Z,16.9
2023-05-12T07:05:46.000Z,17
2023-05-12T07:07:02.000Z,17
2023-05-12T07:08:17.000Z,16.9
2023-05-12T07:09:33.000Z,17
2023-05-12T07:10:50.000Z,16.9
2023-05-12T07:12:06.000Z,17.1
2023-05-12T07:13:22.399Z,17.2
2023-05-12T07:14:38.000Z,17.4
2023-05-12T07:15:54.000Z,17.4
2023-05-12T07:17:11.000Z,17.4
2023-05-12T07:18:27.000Z,17.4
2023-05-12T07:19:43.000Z,17.5
2023-05-12T07:20:59.000Z,17.6
2023-05-12T07:22:15.000Z,17.7
2023-05-12T07:23:32.000Z,17.9
2023-05-12T07:24:47.000Z,18.1
2023-05-12T07:26:03.000Z,18.2
2023-05-12T07:27:19.000Z,18.4
2023-05-12T07:28:35.000Z,18.4
2023-05-12T07:29:51.000Z,18.3
2023-05-12T07:31:08.000Z,18.4
2023-05-12T07:32:23.000Z,18.2
2023-05-12T07:33:39.000Z,18.1
2023-05-12T07:34:55.000Z,18.2
2023-05-12T07:36:11.000Z,18.3
2023-05-12T07:37:28.000Z,18.4
2023-05-12T07:38:44.000Z,18.4
2023-05-12T07:40:00.000Z,18.2
2023-05-12T07:41:16.000Z,18.3
2023-05-12T07:42:32.000Z,18.5
2023-05-12T07:43:49.000Z,18.6
2023-05-12T07:45:05.000Z,18.7
2023-05-12T07:46:21.000Z,18.9
2023-05-12T07:47:37.000Z,18.9
2023-05-12T07:48:52.000Z,18.8
2023-05-12T07:50:09.000Z,18.7
2023-05-12T07:51:25.000Z,18.6
2023-05-12T07:52:41.000Z,18.7
2023-05-12T07:53:57.000Z,18.8
2023-05-12T07:55:13.000Z,18.7
2023-05-12T07:56:30.000Z,18.6
2023-05-12T07:57:46.000Z,18.3
2023-05-12T07:59:02.000Z,18.2
2023-05-12T08:00:18.000Z,18.1
2023-05-12T08:01:34.787Z,18.1
2023-05-12T08:02:51.000Z,18.1
2023-05-12T08:04:07.000Z,18.1
2023-05-12T08:05:22.000Z,18
2023-05-12T08:06:38.000Z,18
2023-05-12T08:07:54.000Z,17.9
2023-05-12T08:09:11.000Z,17.9
2023-05-12T08:10:27.000Z,17.8
2023-05-12T08:11:43.000Z,17.8
2023-05-12T08:12:59.000Z,17.8
2023-05-12T08:14:15.000Z,17.9
2023-05-12T08:15:32.000Z,17.9
2023-05-12T08:16:48.133Z,17.9
2023-05-12T08:18:04.000Z,17.9
2023-05-12T08:19:20.000Z,18
2023-05-12T08:20:36.000Z,18
2023-05-12T08:21:51.000Z,17.9
2023-05-12T08:23:08.000Z,18
2023-05-12T08:24:24.000Z,17.9
2023-05-12T08:25:40.000Z,17.9
2023-05-12T08:26:56.000Z,17.9
2023-05-12T08:28:12.000Z,17.9
2023-05-12T08:29:29.000Z,17.9
2023-05-12T08:30:45.000Z,18
2023-05-12T08:32:01.000Z,18.1
2023-05-12T08:33:17.000Z,18.2
2023-05-12T08:34:33.000Z,18.2
2023-05-12T08:35:50.000Z,18.2
2023-05-12T08:37:06.000Z,18.2
2023-05-12T08:38:21.000Z,18.2
2023-05-12T08:39:37.000Z,18.2
2023-05-12T08:40:53.000Z,18.1
2023-05-12T08:42:10.000Z,18.1
2023-05-12T08:43:26.000Z,18.1
2023-05-12T08:44:42.000Z,18.2
2023-05-12T08:45:58.000Z,18.1
2023-05-12T08:47:14.000Z,18.1
2023-05-12T08:48:31.000Z,18.1
2023-05-12T08:49:47.000Z,18
2023-05-12T08:51:03.000Z,18.1
2023-05-12T08:52:19.000Z,18.2
2023-05-12T08:53:35.000Z,18.2
2023-05-12T08:54:50.985Z,18.2
2023-05-12T08:56:07.000Z,18.2
2023-05-12T08:57:23.000Z,18.3
2023-05-12T08:58:39.576Z,18.4
2023-05-12T08:59:55.000Z,18.4
2023-05-12T09:01:12.000Z,18.5
2023-05-12T09:02:28.000Z,18.6
2023-05-12T09:03:44.000Z,18.5
2023-05-12T09:05:00.531Z,18.6
2023-05-12T09:06:16.000Z,18.6
2023-05-12T09:07:33.000Z,18.5
2023-05-12T09:08:49.000Z,18.5
2023-05-12T09:10:05.000Z,18.5
2023-05-12T09:11:20.000Z,18.6
2023-05-12T09:12:36.000Z,18.7
2023-05-12T09:13:53.000Z,18.8
2023-05-12T09:15:09.000Z,19
2023-05-12T09:16:25.000Z,18.9
2023-05-12T09:17:41.000Z,18.8
2023-05-12T09:18:57.000Z,18.8
2023-05-12T09:20:13.000Z,18.9
2023-05-12T09:21:30.000Z,19
2023-05-12T09:22:46.000Z,19
2023-05-12T09:24:02.000Z,19
2023-05-12T09:25:18.000Z,19.1
2023-05-12T09:26:34.000Z,19.1
2023-05-12T09:27:50.000Z,19.1
2023-05-12T09:29:06.000Z,19.2
2023-05-12T09:30:22.000Z,19.2
2023-05-12T09:31:38.000Z,19.1
2023-05-12T09:32:54.868Z,19
2023-05-12T09:34:11.000Z,19.1
2023-05-12T09:35:27.000Z,19.2
2023-05-12T09:36:43.000Z,19.3
2023-05-12T09:37:59.000Z,19.3
2023-05-12T09:39:15.000Z,19.4
2023-05-12T09:40:32.000Z,19.6
2023-05-12T09:41:48.000Z,19.8
2023-05-12T09:43:04.000Z,20
2023-05-12T09:44:19.000Z,20.2
2023-05-12T09:45:35.826Z,20.4
2023-05-12T09:46:52.000Z,20.5
2023-05-12T09:48:08.000Z,20.6
2023-05-12T09:49:24.000Z,20.7
2023-05-12T09:50:40.000Z,20.4
2023-05-12T09:51:56.000Z,20.5
2023-05-12T09:53:13.000Z,20.7
2023-05-12T09:54:29.000Z,20.9
2023-05-12T09:55:45.000Z,21.1
2023-05-12T09:57:01.000Z,21.3
2023-05-12T09:58:17.000Z,21.1
2023-05-12T09:59:34.000Z,21.2
2023-05-12T10:00:49.000Z,21.4
2023-05-12T10:02:05.000Z,21.6
2023-05-12T10:03:21.000Z,21.8
2023-05-12T10:04:37.000Z,21.9
2023-05-12T10:05:54.000Z,22
2023-05-12T10:07:10.000Z,21.9
2023-05-12T10:08:26.000Z,21.4
2023-05-12T10:09:42.000Z,21.3
2023-05-12T10:10:58.748Z,21.4
2023-05-12T10:12:14.954Z,21.5
2023-05-12T10:13:31.000Z,21.7
2023-05-12T10:14:47.000Z,21.9
2023-05-12T10:16:03.000Z,22
2023-05-12T10:17:18.000Z,22
2023-05-12T10:18:35.000Z,21.9
2023-05-12T10:19:51.128Z,21.9
2023-05-12T10:21:07.000Z,22
2023-05-12T10:22:23.000Z,22
2023-05-12T10:23:39.727Z,22
2023-05-12T10:24:56.000Z,22.1
2023-05-12T10:26:12.000Z,22.2
2023-05-12T10:27:28.000Z,22.3
2023-05-12T10:28:44.000Z,22.4
2023-05-12T10:30:00.000Z,22.3
2023-05-12T10:31:16.000Z,22
2023-05-12T10:32:33.000Z,22
2023-05-12T10:33:48.000Z,22
2023-05-12T10:35:04.000Z,22
2023-05-12T10:36:20.000Z,22
2023-05-12T10:37:36.000Z,22
2023-05-12T10:38:53.000Z,22
2023-05-12T10:40:09.000Z,21.8
2023-05-12T10:41:25.000Z,21.6
2023-05-12T10:42:41.666Z,21.4
2023-05-12T10:43:57.000Z,21.3
2023-05-12T10:45:14.000Z,21.3
2023-05-12T10:46:30.000Z,21.3
2023-05-12T10:47:46.000Z,21.4
2023-05-12T10:49:02.000Z,21.4
2023-05-12T10:50:17.000Z,21.5
2023-05-12T10:51:34.000Z,21.6
2023-05-12T10:52:50.000Z,21.7
2023-05-12T10:54:06.000Z,21.7
2023-05-12T10:55:22.630Z,21.7
2023-05-12T10:56:38.000Z,21.6
2023-05-12T10:57:55.000Z,21.6
2023-05-12T10:59:11.000Z,21.7
2023-05-12T11:00:27.000Z,21.8
2023-05-12T11:01:43.623Z,21.8
2023-05-12T11:02:59.000Z,21.8
2023-05-12T11:04:16.000Z,21.8
2023-05-12T11:05:32.000Z,21.9
2023-05-12T11:06:47.000Z,21.9
2023-05-12T11:08:03.000Z,22
2023-05-12T11:09:19.000Z,22.1
2023-05-12T11:10:36.000Z,22.2
2023-05-12T11:11:52.000Z,22.3
2023-05-12T11:13:08.000Z,22.3
2023-05-12T11:14:24.589Z,22.3
2023-05-12T11:15:40.000Z,22.4
2023-05-12T11:16:57.000Z,22.3
2023-05-12T11:18:13.000Z,22.2
2023-05-12T11:19:29.000Z,22.2
2023-05-12T11:20:45.000Z,22.2
2023-05-12T11:22:01.000Z,22.2
2023-05-12T11:23:17.000Z,22.3
2023-05-12T11:24:33.000Z,22.2
2023-05-12T11:25:49.000Z,22.3
2023-05-12T11:27:05.000Z,22.3
2023-05-12T11:28:21.000Z,22.3
2023-05-12T11:29:38.000Z,22.4
2023-05-12T11:30:54.000Z,22.4
2023-05-12T11:32:10.000Z,22.4
2023-05-12T11:33:26.000Z,22.3
2023-05-12T11:34:42.000Z,22.3
2023-05-12T11:35:59.000Z,22.2
2023-05-12T11:37:15.000Z,22.3
2023-05-12T11:38:31.000Z,22.3
2023-05-12T11:39:46.525Z,22.3
2023-05-12T11:41:02.000Z,22.3
2023-05-12T11:42:18.000Z,22.3
2023-05-12T11:43:35.114Z,22.4
2023-05-12T11:44:51.000Z,22.5
2023-05-12T11:46:07.000Z,22.4
2023-05-12T11:47:22.000Z,22.5
2023-05-12T11:48:39.000Z,22.4
2023-05-12T11:49:55.000Z,22.5
2023-05-12T11:51:11.298Z,22.6
2023-05-12T11:52:27.491Z,22.6
2023-05-12T11:53:43.000Z,22.5
2023-05-12T11:54:59.000Z,22.5
2023-05-12T11:56:16.000Z,22.5
2023-05-12T11:57:32.000Z,22.5
2023-05-12T11:58:48.000Z,22.6
2023-05-12T12:00:04.000Z,22.6
2023-05-12T12:01:20.000Z,22.6
2023-05-12T12:02:37.000Z,22.7
2023-05-12T12:03:52.000Z,22.9
2023-05-12T12:05:08.000Z,22.9
2023-05-12T12:06:24.000Z,22.9
2023-05-12T12:07:40.859Z,22.8
2023-05-12T12:08:57.000Z,22.7
2023-05-12T12:10:13.000Z,22.7
2023-05-12T12:11:29.000Z,22.7
2023-05-12T12:12:45.000Z,22.8
2023-05-12T12:14:01.000Z,22.8
2023-05-12T12:15:18.000Z,22.8
2023-05-12T12:16:34.000Z,22.7
2023-05-12T12:17:50.412Z,22.7
2023-05-12T12:19:06.000Z,22.6
2023-05-12T12:20:21.000Z,22.6
2023-05-12T12:21:38.000Z,22.6
2023-05-12T12:22:54.000Z,22.6
2023-05-12T12:24:10.000Z,22.7
2023-05-12T12:25:26.000Z,22.6
2023-05-12T12:26:42.000Z,22.6
2023-05-12T12:27:59.000Z,22.6
2023-05-12T12:29:15.000Z,22.6
2023-05-12T12:30:31.000Z,22.5
2023-05-12T12:31:47.000Z,22.5
2023-05-12T12:33:03.000Z,22.7
2023-05-12T12:34:20.000Z,22.8
2023-05-12T12:35:36.000Z,22.9
2023-05-12T12:36:51.000Z,23
2023-05-12T12:38:07.000Z,23.1
2023-05-12T12:39:23.000Z,23.1
2023-05-12T12:40:40.000Z,23.1
2023-05-12T12:41:56.000Z,23
2023-05-12T12:43:12.361Z,23
2023-05-12T12:44:28.000Z,23
2023-05-12T12:45:44.000Z,23
2023-05-12T12:47:01.000Z,22.9
2023-05-12T12:48:17.000Z,22.9
2023-05-12T12:49:33.000Z,22.8
2023-05-12T12:50:49.000Z,22.8
2023-05-12T12:52:05.000Z,22.7
2023-05-12T12:53:20.939Z,22.7
2023-05-12T12:54:37.000Z,22.6
2023-05-12T12:55:53.329Z,22.6
2023-05-12T12:57:09.000Z,22.5
2023-05-12T12:58:25.000Z,22.5
2023-05-12T12:59:42.000Z,22.5
2023-05-12T13:00:58.000Z,22.6
2023-05-12T13:02:14.000Z,22.6
2023-05-12T13:03:30.000Z,22.6
2023-05-12T13:04:46.000Z,22.6
2023-05-12T13:06:02.000Z,22.5
2023-05-12T13:07:19.000Z,22.5
2023-05-12T13:08:35.000Z,22.4
2023-05-12T13:09:50.000Z,22.5
2023-05-12T13:11:06.000Z,22.5
2023-05-12T13:12:22.000Z,22.5
2023-05-12T13:13:39.000Z,22.6
2023-05-12T13:14:55.000Z,22.6
2023-05-12T13:16:11.000Z,22.7
2023-05-12T13:17:27.000Z,22.8
2023-05-12T13:18:43.000Z,22.8
2023-05-12T13:20:00.000Z,22.8
2023-05-12T13:21:16.000Z,22.9
2023-05-12T13:22:32.000Z,22.8
2023-05-12T13:23:48.000Z,22.8
2023-05-12T13:25:04.000Z,22.8
2023-05-12T13:26:20.000Z,22.8
2023-05-12T13:27:36.000Z,22.8
2023-05-12T13:28:52.000Z,22.9
2023-05-12T13:30:08.618Z,22.9
2023-05-12T13:31:24.000Z,23
2023-05-12T13:32:41.000Z,23
2023-05-12T13:33:57.221Z,23.1
2023-05-12T13:35:13.000Z,23.2
2023-05-12T13:36:29.000Z,23.1
2023-05-12T13:37:45.000Z,23.1
2023-05-12T13:39:02.000Z,23.1
2023-05-12T13:40:18.000Z,23.1
2023-05-12T13:41:34.000Z,23.1
2023-05-12T13:42:49.000Z,23.1
2023-05-12T13:44:05.000Z,23
2023-05-12T13:45:22.000Z,23
2023-05-12T13:46:38.186Z,23
2023-05-12T13:47:54.000Z,23
2023-05-12T13:49:10.000Z,23.1
2023-05-12T13:50:26.000Z,23.1
2023-05-12T13:51:43.000Z,23.1
2023-05-12T13:52:59.000Z,23.1
2023-05-12T13:54:15.000Z,23.1
2023-05-12T13:55:31.000Z,23.2
2023-05-12T13:56:47.755Z,23.2
2023-05-12T13:58:04.000Z,23.2
2023-05-12T13:59:19.159Z,23.2
2023-05-12T14:00:35.358Z,23.2
2023-05-12T14:01:51.000Z,23.2
2023-05-12T14:03:07.000Z,23.3
2023-05-12T14:04:24.000Z,23.3
2023-05-12T14:05:40.000Z,23.3
2023-05-12T14:06:56.000Z,23.2
2023-05-12T14:08:12.000Z,23.1
2023-05-12T14:09:28.000Z,23
2023-05-12T14:10:45.000Z,23.1
2023-05-12T14:12:01.000Z,23.1
2023-05-12T14:13:17.000Z,23.2
2023-05-12T14:14:33.000Z,23.3
2023-05-12T14:15:48.000Z,23.2
2023-05-12T14:17:05.000Z,23
2023-05-12T14:18:21.000Z,23
2023-05-12T14:19:37.000Z,22.9
2023-05-12T14:20:53.000Z,22.9
2023-05-12T14:22:09.000Z,23
2023-05-12T14:23:25.000Z,23.1
2023-05-12T14:24:42.000Z,23.1
2023-05-12T14:25:58.000Z,23.1
2023-05-12T14:27:14.000Z,23.2
2023-05-12T14:28:30.000Z,23.2
2023-05-12T14:29:46.000Z,23.2
2023-05-12T14:31:03.000Z,23.2
2023-05-12T14:32:18.000Z,23.1
2023-05-12T14:33:34.000Z,23
2023-05-12T14:34:50.000Z,23
2023-05-12T14:36:06.000Z,22.9
2023-05-12T14:37:23.050Z,23
2023-05-12T14:38:39.000Z,23
2023-05-12T14:39:55.000Z,23
2023-05-12T14:41:11.000Z,23.1
2023-05-12T14:42:27.000Z,23.2
2023-05-12T14:43:44.000Z,23.3
2023-05-12T14:45:00.000Z,23.3
2023-05-12T14:46:16.000Z,23.4
2023-05-12T14:47:32.000Z,23.4
2023-05-12T14:48:47.000Z,23.5
2023-05-12T14:50:04.000Z,23.5
2023-05-12T14:51:20.000Z,23.6
2023-05-12T14:52:36.000Z,23.6
2023-05-12T14:53:52.000Z,23.4
2023-05-12T14:55:08.000Z,23
2023-05-12T14:56:25.000Z,22.8
2023-05-12T14:57:41.000Z,22.7
2023-05-12T14:58:57.000Z,22.8
2023-05-12T15:00:13.000Z,22.8
2023-05-12T15:01:29.780Z,22.9
2023-05-12T15:02:45.965Z,22.9
2023-05-12T15:04:02.000Z,22.9
2023-05-12T15:05:17.000Z,22.9
2023-05-12T15:06:33.000Z,22.8
2023-05-12T15:07:49.000Z,22.6
2023-05-12T15:09:06.000Z,22.6
2023-05-12T15:10:22.000Z,22.6
2023-05-12T15:11:38.346Z,22.7
2023-05-12T15:12:54.000Z,22.7
2023-05-12T15:14:10.000Z,22.6
2023-05-12T15:15:27.000Z,22.4
2023-05-12T15:16:43.000Z,22.2
2023-05-12T15:17:59.000Z,22.2
2023-05-12T15:19:15.000Z,22.3
2023-05-12T15:20:31.000Z,22.4
2023-05-12T15:21:47.000Z,22.5
2023-05-12T15:23:03.000Z,22.4
2023-05-12T15:24:19.000Z,22.4
2023-05-12T15:25:35.000Z,22.5
2023-05-12T15:26:51.000Z,22.5
2023-05-12T15:28:08.000Z,22.5
2023-05-12T15:29:24.000Z,22.6
2023-05-12T15:30:40.000Z,22.6
2023-05-12T15:31:56.000Z,22.6
2023-05-12T15:33:12.000Z,22.6
2023-05-12T15:34:28.000Z,22.6
2023-05-12T15:35:45.000Z,22.7
2023-05-12T15:37:01.000Z,22.7
2023-05-12T15:38:16.000Z,22.7
2023-05-12T15:39:32.000Z,22.8
2023-05-12T15:40:48.885Z,22.8
2023-05-12T15:42:05.077Z,22.8
2023-05-12T15:43:21.000Z,22.9
2023-05-12T15:44:37.000Z,22.8
2023-05-12T15:45:53.000Z,22.8
2023-05-12T15:47:09.000Z,22.9
2023-05-12T15:48:26.000Z,23
2023-05-12T15:49:42.000Z,23.1
2023-05-12T15:50:58.000Z,23.2
2023-05-12T15:52:14.000Z,23.2
2023-05-12T15:53:30.000Z,23.2
2023-05-12T15:54:46.000Z,23.2
2023-05-12T15:56:02.000Z,23.2
2023-05-12T15:57:18.000Z,23.3
2023-05-12T15:58:34.000Z,23.3
2023-05-12T15:59:50.000Z,23.2
2023-05-12T16:01:07.000Z,23.1
2023-05-12T16:02:22.000Z,23.1
2023-05-12T16:03:38.000Z,23
2023-05-12T16:04:54.000Z,22.9
2023-05-12T16:06:10.914Z,23
2023-05-12T16:07:27.000Z,23
2023-05-12T16:08:43.000Z,22.9
2023-05-12T16:09:59.000Z,22.9
2023-05-12T16:11:15.000Z,22.8
2023-05-12T16:12:31.000Z,22.8
2023-05-12T16:13:48.000Z,22.7
2023-05-12T16:15:04.000Z,22.8
2023-05-12T16:16:20.476Z,22.8
2023-05-12T16:17:36.000Z,22.9
2023-05-12T16:18:51.880Z,23
2023-05-12T16:20:08.000Z,23.1
2023-05-12T16:21:24.000Z,23.2
2023-05-12T16:22:40.000Z,23.1
2023-05-12T16:23:56.000Z,23.1
2023-05-12T16:25:12.000Z,23
2023-05-12T16:26:29.000Z,23
2023-05-12T16:27:45.000Z,23
2023-05-12T16:29:01.000Z,23
2023-05-12T16:30:17.000Z,23
2023-05-12T16:31:33.000Z,23
2023-05-12T16:32:50.000Z,23
2023-05-12T16:34:06.000Z,23
2023-05-12T16:35:21.000Z,23
2023-05-12T16:36:37.000Z,23.1
2023-05-12T16:37:53.000Z,23.1
2023-05-12T16:39:10.000Z,23
2023-05-12T16:40:26.000Z,23
2023-05-12T16:41:42.000Z,23
2023-05-12T16:42:58.000Z,23
2023-05-12T16:44:14.812Z,22.9
2023-05-12T16:45:31.000Z,22.8
2023-05-12T16:46:47.000Z,22.7
2023-05-12T16:48:03.391Z,22.7
2023-05-12T16:49:19.000Z,22.6
2023-05-12T16:50:35.783Z,22.6
2023-05-12T16:51:51.000Z,22.6
2023-05-12T16:53:07.000Z,22.6
2023-05-12T16:54:23.000Z,22.6
2023-05-12T16:55:39.000Z,22.6
2023-05-12T16:56:55.790Z,22.6
2023-05-12T16:58:12.000Z,22.6
2023-05-12T16:59:28.000Z,22.6